createdAt,value
2023-05-04T00:02:30.729Z,9.78
2023-05-04T00:05:02.708Z,9.71
2023-05-04T00:07:34.799Z,9.65
2023-05-04T00:10:07.084Z,9.68
2023-05-04T00:12:39.383Z,9.67
2023-05-04T00:15:10.880Z,9.65
2023-05-04T00:17:42.464Z,9.65
2023-05-04T00:20:13.950Z,9.62
2023-05-04T00:22:45.397Z,9.58
2023-05-04T00:25:16.973Z,9.56
2023-05-04T00:27:48.448Z,9.53
2023-05-04T00:30:20.425Z,9.50
2023-05-04T00:32:52.010Z,9.49
2023-05-04T00:35:23.557Z,9.47
2023-05-04T00:37:55.050Z,9.41
2023-05-04T00:40:26.576Z,9.40
2023-05-04T00:42:58.567Z,9.35
2023-05-04T00:45:30.476Z,9.35
2023-05-04T00:48:02.542Z,9.33
2023-05-04T00:50:34.869Z,9.31
2023-05-04T00:53:10.633Z,9.29
2023-05-04T00:55:42.153Z,9.25
2023-05-04T00:58:13.677Z,9.23
2023-05-04T01:00:45.283Z,9.17
2023-05-04T01:03:17.267Z,9.11
2023-05-04T01:06:27.817Z,9.07
2023-05-04T01:09:11.341Z,9.04
2023-05-04T01:11:53.733Z,9.04
2023-05-04T01:14:25.572Z,9.04
2023-05-04T01:16:59.416Z,9.02
2023-05-04T01:19:31.132Z,8.98
2023-05-04T01:22:02.666Z,8.97
2023-05-04T01:24:34.528Z,8.93
2023-05-04T01:27:11.350Z,8.89
2023-05-04T01:29:48.638Z,8.87
2023-05-04T01:32:21.626Z,8.86
2023-05-04T01:34:53.258Z,8.82
2023-05-04T01:37:25.512Z,8.74
2023-05-04T01:39:56.966Z,8.67
2023-05-04T01:42:28.392Z,8.65
2023-05-04T01:45:00.080Z,8.63
2023-05-04T01:47:31.718Z,8.58
2023-05-04T01:50:05.689Z,8.50
2023-05-04T01:52:37.537Z,8.46
2023-05-04T01:55:09.355Z,8.43
2023-05-04T01:57:40.890Z,8.44
2023-05-04T02:00:12.929Z,8.47
2023-05-04T02:02:44.479Z,8.47
2023-05-04T02:05:16.382Z,8.47
2023-05-04T02:07:47.955Z,8.43
2023-05-04T02:10:19.459Z,8.44
2023-05-04T02:12:52.145Z,8.41
2023-05-04T02:15:23.747Z,8.39
2023-05-04T02:17:55.377Z,8.37
2023-05-04T02:20:26.982Z,8.32
2023-05-04T02:23:01.311Z,8.30
2023-05-04T02:25:32.858Z,8.24
2023-05-04T02:28:04.446Z,8.23
2023-05-04T02:30:36.029Z,8.15
2023-05-04T02:33:07.816Z,8.14
2023-05-04T02:35:39.391Z,8.14
2023-05-04T02:38:10.892Z,8.10
2023-05-04T02:40:42.425Z,8.09
2023-05-04T02:43:13.960Z,8.07
2023-05-04T02:45:45.563Z,8.01
2023-05-04T02:48:17.029Z,7.98
2023-05-04T02:50:48.535Z,7.96
2023-05-04T02:53:20.049Z,8.00
2023-05-04T02:55:51.578Z,8.02
2023-05-04T02:58:23.086Z,8.02
2023-05-04T03:00:57.878Z,8.03
2023-05-04T03:03:29.393Z,8.07
2023-05-04T03:06:01.130Z,8.07
2023-05-04T03:08:32.591Z,8.05
2023-05-04T03:11:04.055Z,8.04
2023-05-04T03:13:35.705Z,8.03
2023-05-04T03:16:07.310Z,7.99
2023-05-04T03:21:28.081Z,7.96
2023-05-04T03:23:59.559Z,7.98
2023-05-04T03:26:31.154Z,7.97
2023-05-04T03:29:02.736Z,7.95
2023-05-04T03:31:34.296Z,7.94
2023-05-04T03:34:05.833Z,7.94
2023-05-04T03:36:37.416Z,7.91
2023-05-04T03:39:10.073Z,7.90
2023-05-04T03:41:41.576Z,7.86
2023-05-04T03:44:13.011Z,7.80
2023-05-04T03:46:44.560Z,7.78
2023-05-04T03:49:16.072Z,7.78
2023-05-04T03:51:48.706Z,7.76
2023-05-04T03:54:20.186Z,7.68
2023-05-04T03:56:52.394Z,7.61
2023-05-04T03:59:23.888Z,7.53
2023-05-04T04:01:55.438Z,7.51
2023-05-04T04:04:27.359Z,7.48
2023-05-04T04:06:58.913Z,7.45
2023-05-04T04:09:30.470Z,7.43
2023-05-04T04:12:02.301Z,7.43
2023-05-04T04:14:33.767Z,7.49
2023-05-04T04:17:05.432Z,7.57
2023-05-04T04:19:36.967Z,7.65
2023-05-04T04:22:08.500Z,7.72
2023-05-04T04:24:40.006Z,7.77
2023-05-04T04:27:11.480Z,7.83
2023-05-04T04:29:43.045Z,7.88
2023-05-04T04:32:14.602Z,7.93
2023-05-04T04:34:46.236Z,8.00
2023-05-04T04:37:18.020Z,8.05
2023-05-04T04:39:49.515Z,8.07
2023-05-04T04:42:21.217Z,8.12
2023-05-04T04:44:52.724Z,8.21
2023-05-04T04:47:24.354Z,8.27
2023-05-04T04:49:55.906Z,8.37
2023-05-04T04:52:27.445Z,8.47
2023-05-04T04:54:58.977Z,8.56
2023-05-04T04:57:31.835Z,8.62
2023-05-04T05:00:08.531Z,8.66
2023-05-04T05:02:40.083Z,8.76
2023-05-04T05:05:12.920Z,8.82
2023-05-04T05:07:44.634Z,8.88
2023-05-04T05:10:16.607Z,8.96
2023-05-04T05:12:49.601Z,9.00
2023-05-04T05:15:21.617Z,9.04
2023-05-04T05:17:53.183Z,9.10
2023-05-04T05:20:36.255Z,9.20
2023-05-04T05:23:07.814Z,9.22
2023-05-04T05:25:39.423Z,9.23
2023-05-04T05:28:11.159Z,9.25
2023-05-04T05:30:42.893Z,9.28
2023-05-04T05:33:14.570Z,9.31
2023-05-04T05:35:46.146Z,9.27
2023-05-04T05:38:18.372Z,9.30
2023-05-04T05:40:49.888Z,9.36
2023-05-04T05:43:21.642Z,9.32
2023-05-04T05:45:53.640Z,9.44
2023-05-04T05:48:25.130Z,9.44
2023-05-04T05:50:56.637Z,9.48
2023-05-04T05:53:28.133Z,9.55
2023-05-04T05:55:59.669Z,9.60
2023-05-04T05:58:31.285Z,9.65
2023-05-04T06:01:03.566Z,9.72
2023-05-04T06:03:35.021Z,9.77
2023-05-04T06:06:06.695Z,9.81
2023-05-04T06:08:38.207Z,9.76
2023-05-04T06:11:09.710Z,9.73
2023-05-04T06:13:41.234Z,9.86
2023-05-04T06:16:13.037Z,9.88
2023-05-04T06:18:44.546Z,9.99
2023-05-04T06:21:16.185Z,10.08
2023-05-04T06:23:47.822Z,10.06
2023-05-04T06:26:20.170Z,10.13
2023-05-04T06:28:51.935Z,10.17
2023-05-04T06:31:24.216Z,10.27
2023-05-04T06:33:55.815Z,10.34
2023-05-04T06:36:27.353Z,10.46
2023-05-04T06:38:58.873Z,10.51
2023-05-04T06:41:30.605Z,10.61
2023-05-04T06:44:02.301Z,10.66
2023-05-04T06:46:37.301Z,10.85
2023-05-04T06:49:08.821Z,10.93
2023-05-04T06:51:40.810Z,10.99
2023-05-04T06:54:13.090Z,11.07
2023-05-04T06:56:44.451Z,11.18
2023-05-04T06:59:16.926Z,11.25
2023-05-04T07:01:48.650Z,11.30
2023-05-04T07:04:23.219Z,11.37
2023-05-04T07:06:55.017Z,11.42
2023-05-04T07:09:26.818Z,11.53
2023-05-04T07:11:58.317Z,11.62
2023-05-04T07:14:29.890Z,11.70
2023-05-04T07:17:01.378Z,11.77
2023-05-04T07:19:32.845Z,11.81
2023-05-04T07:22:04.297Z,11.89
2023-05-04T07:24:35.767Z,12.01
2023-05-04T07:27:07.778Z,11.99
2023-05-04T07:29:39.383Z,12.09
2023-05-04T07:32:11.137Z,12.26
2023-05-04T07:34:46.319Z,12.37
2023-05-04T07:37:18.056Z,12.44
2023-05-04T07:39:49.568Z,12.44
2023-05-04T07:42:21.047Z,12.58
2023-05-04T07:44:52.952Z,12.52
2023-05-04T07:47:24.901Z,12.66
2023-05-04T07:49:56.463Z,12.80
2023-05-04T07:52:28.050Z,12.86
2023-05-04T07:54:59.569Z,12.95
2023-05-04T07:57:32.342Z,13.08
2023-05-04T08:00:06.180Z,13.11
2023-05-04T08:02:38.087Z,13.19
2023-05-04T08:05:09.910Z,13.24
2023-05-04T08:07:41.483Z,13.31
2023-05-04T08:10:13.052Z,13.36
2023-05-04T08:12:44.562Z,13.43
2023-05-04T08:15:16.432Z,13.46
2023-05-04T08:17:47.956Z,13.52
2023-05-04T08:20:20.303Z,13.62
2023-05-04T08:22:53.386Z,13.63
2023-05-04T08:25:24.823Z,13.74
2023-05-04T08:27:56.554Z,13.81
2023-05-04T08:30:28.228Z,13.85
2023-05-04T08:33:00.391Z,13.90
2023-05-04T08:35:31.780Z,14.03
2023-05-04T08:38:03.922Z,14.17
2023-05-04T08:40:35.447Z,14.29
2023-05-04T08:43:07.408Z,14.38
2023-05-04T08:45:40.000Z,14.52
2023-05-04T08:48:11.659Z,14.61
2023-05-04T08:50:43.536Z,14.67
2023-05-04T08:53:18.731Z,14.85
2023-05-04T08:55:52.739Z,14.93
2023-05-04T08:58:25.293Z,14.95
2023-05-04T09:01:01.110Z,15.12
2023-05-04T09:03:34.295Z,15.27
2023-05-04T09:06:07.274Z,15.32
2023-05-04T09:08:38.830Z,15.45
2023-05-04T09:11:10.498Z,15.46
2023-05-04T09:13:42.977Z,15.58
2023-05-04T09:16:16.228Z,15.73
2023-05-04T09:18:47.873Z,15.80
2023-05-04T09:21:28.896Z,15.93
2023-05-04T09:24:00.445Z,16.08
2023-05-04T09:26:33.051Z,16.21
2023-05-04T09:29:15.060Z,16.36
2023-05-04T09:31:48.374Z,16.38
2023-05-04T09:34:21.440Z,16.57
2023-05-04T09:37:01.585Z,16.66
2023-05-04T09:39:33.085Z,16.80
2023-05-04T09:42:05.765Z,16.90
2023-05-04T09:44:37.276Z,16.94
2023-05-04T09:47:08.786Z,17.03
2023-05-04T09:49:40.327Z,17.15
2023-05-04T09:52:12.503Z,17.20
2023-05-04T09:54:45.297Z,17.42
2023-05-04T09:57:18.820Z,17.47
2023-05-04T09:59:52.216Z,17.58
2023-05-04T10:02:24.546Z,17.75
2023-05-04T10:04:58.311Z,17.82
2023-05-04T10:07:31.552Z,17.85
2023-05-04T10:10:03.622Z,17.89
2023-05-04T10:12:35.011Z,17.90
2023-05-04T10:15:08.789Z,18.11
2023-05-04T10:18:05.134Z,18.15
2023-05-04T10:20:54.942Z,18.35
2023-05-04T10:23:35.382Z,18.46
2023-05-04T10:26:31.898Z,18.63
2023-05-04T10:29:23.142Z,18.64
2023-05-04T10:31:56.843Z,18.72
2023-05-04T10:34:33.629Z,18.70
2023-05-04T10:37:16.728Z,18.94
2023-05-04T10:39:54.914Z,19.00
2023-05-04T10:42:26.680Z,19.07
2023-05-04T10:44:58.303Z,19.22
2023-05-04T10:47:34.532Z,19.35
2023-05-04T10:50:12.256Z,19.48
2023-05-04T10:52:50.936Z,19.53
2023-05-04T10:55:22.561Z,19.62
2023-05-04T10:57:55.922Z,19.66
2023-05-04T11:00:45.774Z,19.75
2023-05-04T11:03:19.029Z,19.65
2023-05-04T11:05:52.664Z,19.67
2023-05-04T11:08:27.472Z,19.96
2023-05-04T11:11:06.785Z,20.06
2023-05-04T11:13:46.101Z,20.20
2023-05-04T11:16:24.867Z,20.30
2023-05-04T11:19:07.502Z,20.43
2023-05-04T11:21:40.759Z,20.34
2023-05-04T11:24:12.461Z,20.56
2023-05-04T11:26:48.873Z,20.67
2023-05-04T11:29:20.828Z,20.75
2023-05-04T11:31:55.797Z,20.94
2023-05-04T11:34:27.825Z,21.06
2023-05-04T11:36:59.378Z,21.16
2023-05-04T11:39:33.443Z,21.21
2023-05-04T11:42:09.053Z,21.25
2023-05-04T11:44:40.816Z,21.38
2023-05-04T11:47:13.579Z,21.08
2023-05-04T11:49:47.493Z,21.32
2023-05-04T11:52:25.720Z,21.26
2023-05-04T11:54:57.438Z,21.43
2023-05-04T11:57:31.571Z,21.40
2023-05-04T12:00:07.908Z,21.59
2023-05-04T12:02:39.562Z,21.47
2023-05-04T12:05:13.522Z,21.64
2023-05-04T12:07:45.156Z,21.71
2023-05-04T12:10:28.275Z,21.48
2023-05-04T12:13:02.100Z,21.57
2023-05-04T12:15:36.556Z,21.79
2023-05-04T12:18:08.121Z,21.95
2023-05-04T12:20:39.624Z,22.08
2023-05-04T12:23:11.273Z,22.27
2023-05-04T12:25:54.679Z,22.31
2023-05-04T12:28:29.888Z,22.42
2023-05-04T12:31:01.418Z,22.56
2023-05-04T12:33:33.705Z,22.24
2023-05-04T12:36:06.203Z,22.64
2023-05-04T12:38:40.737Z,22.72
2023-05-04T12:41:12.533Z,22.89
2023-05-04T12:43:44.091Z,22.84
2023-05-04T12:46:17.479Z,23.02
2023-05-04T12:48:49.046Z,23.02
2023-05-04T12:51:20.832Z,23.25
2023-05-04T12:53:52.401Z,23.19
2023-05-04T12:56:25.101Z,23.18
2023-05-04T12:58:56.551Z,23.34
2023-05-04T13:01:28.236Z,23.48
2023-05-04T13:03:59.796Z,23.65
2023-05-04T13:06:31.799Z,23.92
2023-05-04T13:09:06.048Z,24.07
2023-05-04T13:11:38.055Z,23.97
2023-05-04T13:14:09.711Z,24.24
2023-05-04T13:16:41.817Z,24.24
2023-05-04T13:19:13.841Z,24.25
2023-05-04T13:21:45.821Z,24.62
2023-05-04T13:24:17.709Z,24.79
2023-05-04T13:26:52.167Z,24.91
2023-05-04T13:29:27.358Z,25.22
2023-05-04T13:31:59.820Z,25.00
2023-05-04T13:34:31.796Z,25.00
2023-05-04T13:37:03.601Z,25.06
2023-05-04T13:39:41.864Z,25.34
2023-05-04T13:42:14.040Z,25.43
2023-05-04T13:44:45.944Z,25.64
2023-05-04T13:47:17.862Z,25.80
2023-05-04T13:49:50.554Z,25.83
2023-05-04T13:52:22.501Z,25.93
2023-05-04T13:54:54.536Z,25.92
2023-05-04T13:57:29.973Z,26.07
2023-05-04T14:00:07.572Z,25.91
2023-05-04T14:02:41.294Z,25.82
2023-05-04T14:05:13.784Z,25.91
2023-05-04T14:07:45.280Z,26.04
2023-05-04T14:10:17.645Z,26.02
2023-05-04T14:12:49.178Z,25.93
2023-05-04T14:15:23.216Z,25.71
2023-05-04T14:17:54.773Z,25.63
2023-05-04T14:20:26.529Z,25.62
2023-05-04T14:22:57.881Z,25.73
2023-05-04T14:25:29.459Z,26.02
2023-05-04T14:28:01.784Z,26.16
2023-05-04T14:30:33.894Z,26.59
2023-05-04T14:33:05.470Z,26.65
2023-05-04T14:35:43.168Z,25.86
2023-05-04T14:38:15.056Z,26.71
2023-05-04T14:40:48.976Z,26.95
2023-05-04T14:43:21.595Z,27.39
2023-05-04T14:45:53.315Z,27.24
2023-05-04T14:48:26.364Z,27.51
2023-05-04T14:50:57.880Z,28.40
2023-05-04T14:53:33.163Z,29.35
2023-05-04T14:56:04.816Z,30.50
2023-05-04T14:58:36.342Z,31.47
2023-05-04T15:01:08.287Z,32.12
2023-05-04T15:03:39.927Z,32.50
2023-05-04T15:06:11.570Z,32.58
2023-05-04T15:08:43.290Z,32.21
2023-05-04T15:11:14.758Z,32.13
2023-05-04T15:13:46.229Z,32.33
2023-05-04T15:16:17.901Z,32.94
2023-05-04T15:18:49.397Z,32.92
2023-05-04T15:21:21.361Z,32.28
2023-05-04T15:23:52.926Z,32.65
2023-05-04T15:26:24.430Z,33.09
2023-05-04T15:28:55.994Z,32.12
2023-05-04T15:31:27.549Z,32.41
2023-05-04T15:34:00.567Z,32.94
2023-05-04T15:36:32.160Z,33.05
2023-05-04T15:39:05.446Z,33.59
2023-05-04T15:41:37.073Z,33.87
2023-05-04T15:44:08.598Z,34.77
2023-05-04T15:46:40.180Z,35.75
2023-05-04T15:49:11.756Z,37.28
2023-05-04T15:51:43.251Z,38.22
2023-05-04T15:54:14.810Z,37.41
2023-05-04T15:56:46.356Z,37.22
2023-05-04T15:59:17.935Z,38.71
2023-05-04T16:01:49.559Z,40.61
2023-05-04T16:04:21.048Z,41.34
2023-05-04T16:06:52.530Z,40.30
2023-05-04T16:09:25.325Z,37.55
2023-05-04T16:11:57.013Z,36.40
2023-05-04T16:14:28.468Z,38.27
2023-05-04T16:17:01.348Z,38.08
2023-05-04T16:19:33.022Z,34.62
2023-05-04T16:22:04.511Z,32.49
2023-05-04T16:24:36.159Z,30.21
2023-05-04T16:27:07.828Z,29.13
2023-05-04T16:29:39.321Z,27.83
2023-05-04T16:32:10.774Z,26.65
2023-05-04T16:34:42.243Z,25.93
2023-05-04T16:37:13.788Z,25.41
2023-05-04T16:39:45.109Z,24.98
2023-05-04T16:42:16.591Z,24.58
2023-05-04T16:44:48.027Z,24.36
2023-05-04T16:47:20.314Z,23.99
2023-05-04T16:49:51.825Z,23.64
2023-05-04T16:52:23.416Z,23.20
2023-05-04T16:54:55.114Z,23.06
2023-05-04T16:57:26.591Z,22.89
2023-05-04T16:59:58.134Z,22.78
2023-05-04T17:02:29.716Z,22.74
2023-05-04T17:05:01.364Z,22.70
2023-05-04T17:07:34.098Z,22.48
2023-05-04T17:10:07.991Z,22.47
2023-05-04T17:12:39.879Z,22.39
2023-05-04T17:15:11.822Z,22.23
2023-05-04T17:17:43.371Z,22.10
2023-05-04T17:20:15.252Z,21.93
2023-05-04T17:22:46.803Z,21.71
2023-05-04T17:25:18.515Z,21.42
2023-05-04T17:27:50.033Z,21.33
2023-05-04T17:30:21.728Z,21.20
2023-05-04T17:32:54.366Z,20.85
2023-05-04T17:35:26.737Z,20.78
2023-05-04T17:37:58.998Z,20.61
2023-05-04T17:40:30.746Z,20.50
2023-05-04T17:43:02.332Z,20.41
2023-05-04T17:45:34.088Z,20.27
2023-05-04T17:48:06.281Z,20.09
2023-05-04T17:50:38.046Z,20.01
2023-05-04T17:53:09.518Z,19.97
2023-05-04T17:55:40.957Z,19.78
2023-05-04T17:58:12.450Z,19.69
2023-05-04T18:00:43.925Z,19.62
2023-05-04T18:03:15.613Z,19.51
2023-05-04T18:05:47.211Z,19.39
2023-05-04T18:08:18.993Z,19.29
2023-05-04T18:10:50.682Z,19.17
2023-05-04T18:13:22.340Z,19.03
2023-05-04T18:15:54.002Z,18.91
2023-05-04T18:18:25.519Z,18.79
2023-05-04T18:21:00.750Z,18.67
2023-05-04T18:23:32.314Z,18.55
2023-05-04T18:26:04.010Z,18.40
2023-05-04T18:28:35.713Z,18.30
2023-05-04T18:31:07.299Z,18.13
2023-05-04T18:33:39.041Z,18.01
2023-05-04T18:36:11.119Z,17.89
2023-05-04T18:38:42.694Z,17.76
2023-05-04T18:41:14.296Z,17.65
2023-05-04T18:43:45.828Z,17.54
2023-05-04T18:46:17.409Z,17.48
2023-05-04T18:48:49.294Z,17.39
2023-05-04T18:51:20.804Z,17.34
2023-05-04T18:53:52.395Z,17.27
2023-05-04T18:56:24.066Z,17.18
2023-05-04T18:58:55.586Z,17.11
2023-05-04T19:01:27.845Z,17.05
2023-05-04T19:03:59.502Z,17.03
2023-05-04T19:06:32.518Z,16.97
2023-05-04T19:09:04.272Z,16.88
2023-05-04T19:11:35.770Z,16.86
2023-05-04T19:14:07.351Z,16.78
2023-05-04T19:16:38.978Z,16.63
2023-05-04T19:19:10.552Z,16.62
2023-05-04T19:21:42.960Z,16.57
2023-05-04T19:24:14.534Z,16.50
2023-05-04T19:26:46.118Z,16.43
2023-05-04T19:29:17.707Z,16.37
2023-05-04T19:31:49.283Z,16.31
2023-05-04T19:34:20.826Z,16.30
2023-05-04T19:36:52.477Z,16.28
2023-05-04T19:39:24.000Z,16.25
2023-05-04T19:41:55.504Z,16.22
2023-05-04T19:44:27.008Z,16.17
2023-05-04T19:46:58.734Z,16.11
2023-05-04T19:49:30.842Z,16.04
2023-05-04T19:52:02.384Z,16.02
2023-05-04T19:54:34.102Z,15.96
2023-05-04T19:57:05.571Z,15.90
2023-05-04T19:59:37.073Z,15.85
2023-05-04T20:02:08.752Z,15.84
2023-05-04T20:04:40.396Z,15.78
2023-05-04T20:07:11.879Z,15.74
2023-05-04T20:09:43.402Z,15.72
2023-05-04T20:12:14.881Z,15.62
2023-05-04T20:14:46.615Z,15.56
2023-05-04T20:17:18.168Z,15.48
2023-05-04T20:19:49.907Z,15.44
2023-05-04T20:22:21.415Z,15.39
2023-05-04T20:24:53.531Z,15.35
2023-05-04T20:27:25.278Z,15.30
2023-05-04T20:29:56.775Z,15.28
2023-05-04T20:32:28.901Z,15.25
2023-05-04T20:35:00.335Z,15.22
2023-05-04T20:37:31.939Z,15.20
2023-05-04T20:40:03.786Z,15.18
2023-05-04T20:42:35.705Z,15.12
2023-05-04T20:45:07.818Z,15.14
2023-05-04T20:47:39.375Z,15.10
2023-05-04T20:50:11.888Z,15.06
2023-05-04T20:52:44.375Z,14.96
2023-05-04T20:55:16.480Z,14.96
2023-05-04T20:57:48.087Z,14.90
2023-05-04T21:00:20.019Z,14.84
2023-05-04T21:02:51.659Z,14.76
2023-05-04T21:05:23.352Z,14.69
2023-05-04T21:07:54.911Z,14.68
2023-05-04T21:10:26.519Z,14.68
2023-05-04T21:12:58.341Z,14.67
2023-05-04T21:15:29.919Z,14.62
2023-05-04T21:18:01.466Z,14.58
2023-05-04T21:20:33.130Z,14.55
2023-05-04T21:23:04.688Z,14.48
2023-05-04T21:25:36.236Z,14.51
2023-05-04T21:28:07.822Z,14.47
2023-05-04T21:30:42.668Z,14.42
2023-05-04T21:33:14.222Z,14.33
2023-05-04T21:35:45.755Z,14.27
2023-05-04T21:38:18.445Z,14.28
2023-05-04T21:40:51.804Z,14.19
2023-05-04T21:43:23.413Z,14.08
2023-05-04T21:45:54.912Z,14.03
2023-05-04T21:48:26.956Z,14.03
2023-05-04T21:50:58.456Z,13.95
2023-05-04T21:53:33.633Z,13.92
2023-05-04T21:56:09.356Z,13.84
2023-05-04T21:58:41.100Z,13.75
2023-05-04T22:01:17.068Z,13.68
2023-05-04T22:03:48.746Z,13.64
2023-05-04T22:06:21.982Z,13.63
2023-05-04T22:08:53.522Z,13.63
2023-05-04T22:11:25.330Z,13.64
2023-05-04T22:13:56.875Z,13.62
2023-05-04T22:16:28.471Z,13.55
2023-05-04T22:18:59.866Z,13.53
2023-05-04T22:21:32.479Z,13.52
2023-05-04T22:24:04.314Z,13.49
2023-05-04T22:26:36.018Z,13.44
2023-05-04T22:29:07.532Z,13.40
2023-05-04T22:31:39.004Z,13.31
2023-05-04T22:34:10.562Z,13.27
2023-05-04T22:36:42.029Z,13.25
2023-05-04T22:39:13.542Z,13.22
2023-05-04T22:41:45.042Z,13.13
2023-05-04T22:44:16.529Z,13.03
2023-05-04T22:46:49.247Z,13.05
2023-05-04T22:49:20.800Z,12.94
2023-05-04T22:51:52.287Z,12.97
2023-05-04T22:54:23.796Z,12.96
2023-05-04T22:56:55.861Z,12.93
2023-05-04T22:59:27.356Z,12.89
2023-05-04T23:01:58.945Z,12.88
2023-05-04T23:04:31.191Z,12.79
2023-05-04T23:07:02.539Z,12.73
2023-05-04T23:09:41.501Z,12.65
2023-05-04T23:12:14.162Z,12.60
2023-05-04T23:14:50.132Z,12.58
2023-05-04T23:17:22.105Z,12.62
2023-05-04T23:19:53.657Z,12.56
2023-05-04T23:22:25.669Z,12.53
2023-05-04T23:24:57.276Z,12.43
2023-05-04T23:27:28.823Z,12.39
2023-05-04T23:30:00.351Z,12.36
2023-05-04T23:32:31.930Z,12.30
2023-05-04T23:35:03.598Z,12.23
2023-05-04T23:37:35.108Z,12.18
2023-05-04T23:40:08.152Z,12.15
2023-05-04T23:42:39.847Z,12.10
2023-05-04T23:45:11.617Z,12.07
2023-05-04T23:47:43.172Z,12.07
2023-05-04T23:50:14.781Z,12.08
2023-05-04T23:52:46.347Z,12.03
2023-05-04T23:55:17.882Z,11.97
2023-05-04T23:57:49.434Z,11.95
